Tropical Cyclones
[Index]
Main Index Home Page Stock Weather Photos Extreme Storms Discussion Storm News and Storm Chasing Reports Tropical Cyclones / Hurricanes / Typhoons Weather Data and Links Wild Fires / Bushfires Weather Observation Techniques Weather Picture Catalogue Tornado Pictures and Reports Stock Video Footage and DVDs for sale
Season 1978-1979 Tropical Cyclone CELINE Track Map
Season 1978-1979 Summaries: [BoM-AU] [JTWC-AU] [JTWC-SIO] [JTWC-SPAC] [JTWC-SH]
<<- Previous TC | JTWC 1978-1979 Season | Next TC ->>

click for intensity scale information  Lat/long Grid: Show Hide

 Date Labels: Show Hide

Joint Typhoon Warning Centre Cyclone Data

Name: CELINE
Number: 998 / 7910

31 Jan 1979 06:00 UTC to 12 Feb 1979 06:00 UTC

    date/time    lat    long     hPa   cat  kts
1979-01-31 06   12.0    55.8                              
1979-01-31 12   12.2    55.3                              
1979-01-31 18   12.3    54.9                              
1979-02-01 00   12.3    54.6                              
1979-02-01 06   12.5    54.9                              
1979-02-01 12   13.6    55.8                              
1979-02-01 18   14.9    57.0                              
1979-02-02 00   16.1    58.3                              
1979-02-02 06   17.2    59.5                              
1979-02-02 12   18.0    59.9                              
1979-02-02 18   18.5    59.9                              
1979-02-03 00   19.1    59.9                              
1979-02-03 06   19.5    59.6                              
1979-02-03 12   19.7    59.0                              
1979-02-03 18   19.9    58.3                              
1979-02-04 00   20.1    57.5                              
1979-02-04 06   20.2    57.1                              
1979-02-04 12   20.3    57.1                              
1979-02-04 18   20.3    57.1                              
1979-02-05 00   20.5    57.1                              
1979-02-05 06   20.6    57.1                              
1979-02-05 12   20.6    57.2                              
1979-02-05 18   20.6    57.5                              
1979-02-06 00   20.6    57.8                              
1979-02-06 06   20.6    58.1                              
1979-02-06 12   20.6    58.5                              
1979-02-06 18   20.5    59.0                              
1979-02-07 00   20.5    59.4                              
1979-02-07 06   20.4    59.8                              
1979-02-07 12   20.3    60.0                              
1979-02-07 18   20.2    60.3                              
1979-02-08 00   20.1    60.7                              
1979-02-08 06   20.1    61.1                              
1979-02-08 12   20.1    61.5                              
1979-02-08 18   20.1    62.0                              
1979-02-09 00   20.1    62.5                              
1979-02-09 06   20.1    63.1                              
1979-02-09 12   20.5    65.1                              
1979-02-09 18   21.5    67.5                              
1979-02-10 00   22.6    68.7                              
1979-02-10 06   23.8    69.9                              
1979-02-10 12   24.9    71.4                              
1979-02-10 18   26.0    72.8                              
1979-02-11 00   27.7    73.7                              
1979-02-11 06   29.5    73.9                              
1979-02-11 12   30.7    73.2                              
1979-02-11 18   32.0    72.5                              
1979-02-12 00   33.4    72.2                              
1979-02-12 06   34.9    72.0                              
Winds are 1-min average.

Tropical cyclone tracks developed by Michael Bath using data from the Joint Typhoon Warning Centre Best Tracks and Google Maps.


[Australian Severe Weather index] [Copyright Notice] [Email Contacts] [Search This Site] [Privacy Policy]
Document: tropical_cyclone_celine.htm Updated: 18 September 2016